createdAt,value
2023-05-24T00:03:16.846Z,5.22
2023-05-24T00:07:21.641Z,5.53
2023-05-24T00:11:25.061Z,4.10
2023-05-24T00:15:28.244Z,4.32
2023-05-24T00:19:31.596Z,4.38
2023-05-24T00:23:37.389Z,4.30
2023-05-24T00:27:40.733Z,4.63
2023-05-24T00:31:43.735Z,4.40
2023-05-24T00:35:47.560Z,4.22
2023-05-24T00:39:52.220Z,4.18
2023-05-24T00:43:55.598Z,3.85
2023-05-24T00:47:58.880Z,4.60
2023-05-24T00:52:02.695Z,3.97
2023-05-24T00:56:08.682Z,3.85
2023-05-24T01:00:13.089Z,4.07
2023-05-24T01:04:18.480Z,3.83
2023-05-24T01:08:38.688Z,4.78
2023-05-24T01:12:55.172Z,3.70
2023-05-24T01:17:05.910Z,4.38
2023-05-24T01:21:24.498Z,4.55
2023-05-24T01:25:47.041Z,2.97
2023-05-24T01:29:53.592Z,3.45
2023-05-24T01:33:56.829Z,4.47
2023-05-24T01:38:01.565Z,4.13
2023-05-24T01:42:13.222Z,3.70
2023-05-24T01:46:24.149Z,4.07
2023-05-24T01:50:33.136Z,4.25
2023-05-24T01:54:44.938Z,3.60
2023-05-24T01:58:54.545Z,4.20
2023-05-24T02:02:59.413Z,4.07
2023-05-24T02:07:02.880Z,4.40
2023-05-24T02:11:06.283Z,4.07
2023-05-24T02:15:11.114Z,3.42
2023-05-24T02:19:17.337Z,3.63
2023-05-24T02:23:20.838Z,4.05
2023-05-24T02:27:25.221Z,3.88
2023-05-24T02:31:29.311Z,4.20
2023-05-24T02:35:34.519Z,4.40
2023-05-24T02:39:37.968Z,4.45
2023-05-24T02:43:41.129Z,3.70
2023-05-24T02:47:44.642Z,3.72
2023-05-24T02:51:49.323Z,3.85
2023-05-24T02:55:52.670Z,4.55
2023-05-24T02:59:58.221Z,5.30
2023-05-24T03:04:02.160Z,4.72
2023-05-24T03:08:07.983Z,4.53
2023-05-24T03:12:11.573Z,4.03
2023-05-24T03:16:15.080Z,3.92
2023-05-24T03:20:18.947Z,4.65
2023-05-24T03:24:23.454Z,3.78
2023-05-24T03:28:28.892Z,4.28
2023-05-24T03:32:32.110Z,4.40
2023-05-24T03:36:35.949Z,4.25
2023-05-24T03:40:42.182Z,3.78
2023-05-24T03:44:45.512Z,3.90
2023-05-24T03:48:50.007Z,5.10
2023-05-24T03:52:53.550Z,4.03
2023-05-24T03:56:58.230Z,3.97
2023-05-24T04:01:02.760Z,4.65
2023-05-24T04:05:06.120Z,4.90
2023-05-24T04:09:10.896Z,4.43
2023-05-24T04:13:15.669Z,4.50
2023-05-24T04:17:19.395Z,4.35
2023-05-24T04:21:24.780Z,4.22
2023-05-24T04:25:28.687Z,4.15
2023-05-24T04:29:34.090Z,3.92
2023-05-24T04:33:37.688Z,4.03
2023-05-24T04:37:42.083Z,3.00
2023-05-24T04:41:45.742Z,2.47
2023-05-24T04:45:50.759Z,2.05
2023-05-24T04:49:54.930Z,2.20
2023-05-24T04:54:01.764Z,1.80
2023-05-24T04:58:06.447Z,2.13
2023-05-24T05:02:11.163Z,1.75
2023-05-24T05:06:15.594Z,1.90
2023-05-24T05:10:18.977Z,1.65
2023-05-24T05:14:22.270Z,1.60
2023-05-24T05:18:27.586Z,1.00
2023-05-24T05:22:31.523Z,1.08
2023-05-24T05:26:35.739Z,0.88
2023-05-24T05:30:39.029Z,0.90
2023-05-24T05:34:43.591Z,0.80
2023-05-24T05:38:48.547Z,0.43
2023-05-24T05:42:51.841Z,0.80
2023-05-24T05:46:55.111Z,1.20
2023-05-24T05:50:59.670Z,1.17
2023-05-24T05:55:03.306Z,1.55
2023-05-24T05:59:06.642Z,1.00
2023-05-24T06:03:10.377Z,1.67
2023-05-24T06:07:14.833Z,1.00
2023-05-24T06:11:19.060Z,1.02
2023-05-24T06:15:23.244Z,1.05
2023-05-24T06:19:27.428Z,1.05
2023-05-24T06:23:32.298Z,1.40
2023-05-24T06:27:36.878Z,1.52
2023-05-24T06:31:40.336Z,1.40
2023-05-24T06:35:43.875Z,1.85
2023-05-24T06:39:49.143Z,1.90
2023-05-24T06:43:52.331Z,1.70
2023-05-24T06:47:55.452Z,1.85
2023-05-24T06:51:59.118Z,1.65
2023-05-24T06:56:04.277Z,1.83
2023-05-24T07:00:12.582Z,1.20
2023-05-24T07:04:15.770Z,1.45
2023-05-24T07:08:22.140Z,1.33
2023-05-24T07:12:26.596Z,1.45
2023-05-24T07:16:29.630Z,1.20
2023-05-24T07:20:32.906Z,1.40
2023-05-24T07:24:36.711Z,1.17
2023-05-24T07:28:41.962Z,1.30
2023-05-24T07:32:46.016Z,1.05
2023-05-24T07:36:49.655Z,1.10
2023-05-24T07:40:53.805Z,1.30
2023-05-24T07:44:58.543Z,1.30
2023-05-24T07:49:01.788Z,1.40
2023-05-24T07:53:05.481Z,1.42
2023-05-24T07:57:10.951Z,1.60
2023-05-24T08:01:17.067Z,1.13
2023-05-24T08:05:20.392Z,1.42
2023-05-24T08:09:24.155Z,1.10
2023-05-24T08:13:27.355Z,1.60
2023-05-24T08:17:32.165Z,1.20
2023-05-24T08:21:35.918Z,1.70
2023-05-24T08:25:39.207Z,1.83
2023-05-24T08:29:42.631Z,1.30
2023-05-24T08:33:50.433Z,1.58
2023-05-24T08:37:55.195Z,1.15
2023-05-24T08:42:08.700Z,1.08
2023-05-24T08:46:15.839Z,1.10
2023-05-24T08:50:23.093Z,0.95
2023-05-24T08:54:26.733Z,1.15
2023-05-24T08:58:30.615Z,0.63
2023-05-24T09:02:34.606Z,0.60
2023-05-24T09:06:39.594Z,1.00
2023-05-24T09:10:53.952Z,0.93
2023-05-24T09:14:59.055Z,1.88
2023-05-24T09:19:03.840Z,0.85
2023-05-24T09:23:08.783Z,1.27
2023-05-24T09:27:12.399Z,1.60
2023-05-24T09:31:15.901Z,1.40
2023-05-24T09:35:19.790Z,1.02
2023-05-24T09:39:24.539Z,1.73
2023-05-24T09:43:30.732Z,2.22
2023-05-24T09:47:35.555Z,2.22
2023-05-24T09:51:39.793Z,3.08
2023-05-24T09:55:44.924Z,2.42
2023-05-24T09:59:48.944Z,2.40
2023-05-24T10:03:55.616Z,1.98
2023-05-24T10:07:59.204Z,2.30
2023-05-24T10:12:06.266Z,2.25
2023-05-24T10:16:09.487Z,2.05
2023-05-24T10:20:13.536Z,2.33
2023-05-24T10:24:23.167Z,1.90
2023-05-24T10:28:28.578Z,2.40
2023-05-24T10:32:33.852Z,1.50
2023-05-24T10:36:40.673Z,2.17
2023-05-24T10:40:45.272Z,1.88
2023-05-24T10:44:49.778Z,1.85
2023-05-24T10:49:03.165Z,2.65
2023-05-24T10:53:14.834Z,2.50
2023-05-24T10:57:26.054Z,2.13
2023-05-24T11:01:32.326Z,2.40
2023-05-24T11:05:37.422Z,2.05
2023-05-24T11:09:46.521Z,1.33
2023-05-24T11:13:51.089Z,2.38
2023-05-24T11:18:17.533Z,1.75
2023-05-24T11:22:22.883Z,1.77
2023-05-24T11:26:26.236Z,2.42
2023-05-24T11:30:29.934Z,1.83
2023-05-24T11:34:35.218Z,2.58
2023-05-24T11:38:38.811Z,1.92
2023-05-24T11:42:46.427Z,1.90
2023-05-24T11:46:49.936Z,2.05
2023-05-24T11:50:54.725Z,1.90
2023-05-24T11:54:58.343Z,1.23
2023-05-24T11:59:11.408Z,1.85
2023-05-24T12:03:14.938Z,2.28
2023-05-24T12:07:19.663Z,1.83
2023-05-24T12:11:23.506Z,2.38
2023-05-24T12:15:26.753Z,2.90
2023-05-24T12:19:35.916Z,2.40
2023-05-24T12:23:41.338Z,2.65
2023-05-24T12:27:48.299Z,2.38
2023-05-24T12:31:52.231Z,2.33
2023-05-24T12:35:56.539Z,2.25
2023-05-24T12:40:01.890Z,2.10
2023-05-24T12:44:05.255Z,3.13
2023-05-24T12:48:08.854Z,2.30
2023-05-24T12:52:12.831Z,2.22
2023-05-24T12:56:17.666Z,2.80
2023-05-24T13:00:23.255Z,2.88
2023-05-24T13:04:28.241Z,3.13
2023-05-24T13:08:32.020Z,2.47
2023-05-24T13:12:37.187Z,3.22
2023-05-24T13:16:40.494Z,2.47
2023-05-24T13:20:43.860Z,1.98
2023-05-24T13:24:47.428Z,2.45
2023-05-24T13:32:56.490Z,2.13
2023-05-24T13:37:00.198Z,2.50
2023-05-24T13:41:04.118Z,2.78
2023-05-24T13:45:08.857Z,3.55
2023-05-24T13:49:14.404Z,2.28
2023-05-24T13:53:17.772Z,2.75
2023-05-24T13:57:23.382Z,1.90
2023-05-24T14:01:28.537Z,2.38
2023-05-24T14:05:33.671Z,2.00
2023-05-24T14:09:37.102Z,2.38
2023-05-24T14:14:20.378Z,2.13
2023-05-24T14:18:09.890Z,1.90
2023-05-24T14:22:14.855Z,1.63
2023-05-24T14:26:18.808Z,1.30
2023-05-24T14:30:22.837Z,1.92
2023-05-24T14:34:27.029Z,1.58
2023-05-24T14:38:32.025Z,1.20
2023-05-24T14:42:35.204Z,1.58
2023-05-24T14:46:41.600Z,1.25
2023-05-24T14:50:45.146Z,1.05
2023-05-24T14:54:49.858Z,1.25
2023-05-24T14:58:55.727Z,1.38
2023-05-24T15:02:58.699Z,1.20
2023-05-24T15:07:02.077Z,1.05
2023-05-24T15:11:08.293Z,1.15
2023-05-24T15:15:12.578Z,1.48
2023-05-24T15:19:16.049Z,1.40
2023-05-24T15:23:21.232Z,1.50
2023-05-24T15:27:25.918Z,1.60
2023-05-24T15:31:29.708Z,1.17
2023-05-24T15:35:33.134Z,1.63
2023-05-24T15:39:37.228Z,1.70
2023-05-24T15:43:41.598Z,1.70
2023-05-24T15:47:44.804Z,1.83
2023-05-24T15:52:03.780Z,1.25
2023-05-24T15:56:08.474Z,1.80
2023-05-24T16:00:15.856Z,2.10
2023-05-24T16:04:19.111Z,2.05
2023-05-24T16:08:28.085Z,1.60
2023-05-24T16:12:33.048Z,1.88
2023-05-24T16:16:38.195Z,2.08
2023-05-24T16:20:41.647Z,2.05
2023-05-24T16:24:45.606Z,1.67
2023-05-24T16:28:48.999Z,1.67
2023-05-24T16:32:54.051Z,1.70
2023-05-24T16:36:57.762Z,2.30
2023-05-24T16:41:02.828Z,1.60
2023-05-24T16:45:07.323Z,1.95
2023-05-24T16:49:12.313Z,1.95
2023-05-24T16:53:15.660Z,1.63
2023-05-24T16:57:18.905Z,1.90
2023-05-24T17:01:22.572Z,1.98
2023-05-24T17:05:27.260Z,2.03
2023-05-24T17:09:30.542Z,1.80
2023-05-24T17:13:34.566Z,2.15
2023-05-24T17:17:38.540Z,2.78
2023-05-24T17:21:43.753Z,1.77
2023-05-24T17:25:46.903Z,1.60
2023-05-24T17:29:50.095Z,1.88
2023-05-24T17:33:53.715Z,2.05
2023-05-24T17:37:58.444Z,4.03
2023-05-24T17:42:03.062Z,4.00
2023-05-24T17:46:08.088Z,4.03
2023-05-24T17:50:12.052Z,4.20
2023-05-24T17:54:18.741Z,3.95
2023-05-24T17:58:21.826Z,4.20
2023-05-24T18:02:25.345Z,3.88
2023-05-24T18:06:28.505Z,5.38
2023-05-24T18:10:34.101Z,5.10
2023-05-24T18:14:38.367Z,4.43
2023-05-24T18:18:44.401Z,5.30
2023-05-24T18:22:47.640Z,4.82
2023-05-24T18:26:52.295Z,4.45
2023-05-24T18:30:56.188Z,4.15
2023-05-24T18:34:59.480Z,4.93
2023-05-24T18:39:03.685Z,4.20
2023-05-24T18:43:08.338Z,4.15
2023-05-24T18:47:12.241Z,4.15
2023-05-24T18:51:15.586Z,4.90
2023-05-24T18:55:19.017Z,4.00
2023-05-24T18:59:29.059Z,4.65
2023-05-24T19:03:32.554Z,4.75
2023-05-24T19:07:36.626Z,4.43
2023-05-24T19:11:41.077Z,4.47
2023-05-24T19:15:45.893Z,4.43
2023-05-24T19:19:51.861Z,4.43
2023-05-24T19:23:55.337Z,5.38
2023-05-24T19:28:00.777Z,4.72
2023-05-24T19:32:07.574Z,4.60
2023-05-24T19:36:12.603Z,5.32
2023-05-24T19:40:15.923Z,4.97
2023-05-24T19:44:19.364Z,5.65
2023-05-24T19:48:25.075Z,5.00
2023-05-24T19:52:28.460Z,5.78
2023-05-24T19:56:32.380Z,6.18
2023-05-24T20:00:35.988Z,6.22
2023-05-24T20:04:42.453Z,7.30
2023-05-24T20:08:48.069Z,9.45
2023-05-24T20:12:51.568Z,6.13
2023-05-24T20:16:54.772Z,6.18
2023-05-24T20:21:00.294Z,7.68
2023-05-24T20:25:03.553Z,8.35
2023-05-24T20:29:07.073Z,7.80
2023-05-24T20:33:10.226Z,7.70
2023-05-24T20:37:18.225Z,7.93
2023-05-24T20:41:21.362Z,7.85
2023-05-24T20:45:24.877Z,6.57
2023-05-24T20:49:29.255Z,7.28
2023-05-24T20:53:33.870Z,7.35
2023-05-24T20:57:37.111Z,7.72
2023-05-24T21:01:40.906Z,8.55
2023-05-24T21:05:44.742Z,7.68
2023-05-24T21:09:50.531Z,8.98
2023-05-24T21:13:53.594Z,8.35
2023-05-24T21:17:56.970Z,8.75
2023-05-24T21:22:00.419Z,8.43
2023-05-24T21:26:05.168Z,6.40
2023-05-24T21:30:09.757Z,7.20
2023-05-24T21:34:13.254Z,7.07
2023-05-24T21:38:16.764Z,5.65
2023-05-24T21:46:45.524Z,5.32
2023-05-24T21:50:48.832Z,5.60
2023-05-24T21:54:52.296Z,5.65
2023-05-24T21:58:57.015Z,6.55
2023-05-24T22:03:00.562Z,7.70
2023-05-24T22:07:03.780Z,6.78
2023-05-24T22:11:08.193Z,6.63
2023-05-24T22:15:13.492Z,6.25
2023-05-24T22:19:20.286Z,6.50
2023-05-24T22:23:28.577Z,7.25
2023-05-24T22:27:32.307Z,5.28
2023-05-24T22:31:37.177Z,6.07
2023-05-24T22:35:40.622Z,7.45
2023-05-24T22:39:45.685Z,5.82
2023-05-24T22:43:48.924Z,6.15
2023-05-24T22:47:55.107Z,7.75
2023-05-24T22:51:59.001Z,7.30
2023-05-24T22:56:02.504Z,7.05
2023-05-24T23:00:08.509Z,7.50
2023-05-24T23:04:21.036Z,7.35
2023-05-24T23:08:26.009Z,5.32
2023-05-24T23:12:29.480Z,6.78
2023-05-24T23:16:34.363Z,7.07
2023-05-24T23:20:40.411Z,6.65
2023-05-24T23:24:44.116Z,7.15
2023-05-24T23:28:47.323Z,6.90
2023-05-24T23:32:50.812Z,5.97
2023-05-24T23:36:55.753Z,6.38
2023-05-24T23:40:59.152Z,5.50
2023-05-24T23:45:02.679Z,5.82
2023-05-24T23:49:05.883Z,6.35
2023-05-24T23:53:10.663Z,6.60
2023-05-24T23:57:15.865Z,6.13
